Amagansett, NY

6:38 AM EDT on September 22, 2014 (GMT -0400)
Three Mile Harbor | Change Station
CLOSE
Current Station
Personal Weather Station
Location: East Hampton, NY
Elevation: 16 ft
Nearby Weather Stations
Active Advisory: Coastal Hazard Statement

Elev 16 ft 41.02 °N, 72.18 °W | Updated 17 seconds ago

Clear
Clear
67.7 °F
Feels Like 67.7 °F
N
15.0
Wind Variable Wind from WNW
Gusts 18.0 mph

Today
High -- | Low -- °F
--% Chance of Precip.
Yesterday
High -- | Low -- °F
Precip. -- in
6:36 AM 6:45 PM
Waning Crescent, 3% visible
Pressure 29.66 in
Visibility 9.0 miles
Clouds Clear
Dew Point 60 °F
Humidity 75%
Rainfall 0.00 in
Snow Depth Not available.
UV 0 out of 12
Pollen 1.00 out of 12
Ozone Good
Flu Activity Not available.
METAR KGON 220956Z AUTO 26007KT 9SM CLR 18/17 A2966 RMK AO2 SLP042 T01780172

More Conditions Fewer Conditions

Pressure 29.66 in
Visibility 9.0 miles
Clouds Clear
Dew Point 60 °F
Humidity 75%
Rainfall 0.00 in
Snow Depth Not available.
UV 0 out of 12
Pollen 1.00 out of 12
Ozone Good
Flu Activity Not available.
METAR KGON 220956Z AUTO 26007KT 9SM CLR 18/17 A2966 RMK AO2 SLP042 T01780172

More Conditions Fewer Conditions

10-Day Weather Forecast

Almanac

Astronomy

Sep. 22, 2014 Rise Set
Actual Time 6:36 AM EDT 6:45 PM EDT
Civil Twilight 6:08 AM EDT 7:13 PM EDT
Nautical Twilight 5:36 AM EDT 7:45 PM EDT
Astronomical Twilight 5:03 AM EDT 8:17 PM EDT
Moon 5:01 AM EDT 5:52 PM EDT
Length of Visible Light 13h 04m
Length of Day
12h 09m
Tomorrow will be 2m 42s shorter.
Waning Crescent, 3% of the Moon is Illuminated
Today
Waning Crescent
Sep 24
New
Oct 1
First Quarter
Oct 8
Full
Oct 15
Last Quarter

Today's Extremes

State Highs State Lows

Community

WunderPhotos

Upload Photos

1,755,406 photos uploaded!

Nearby

Air Quality

  Air Quality AQ Index Pollutant
Yesterday Good
OZONE
Current Good
OZONE
Monday Good
OZONE
Monday Good
PM2.5

Snow Depth

Station Depth Elevation
No new snow has been reported.

Earthquake Activity

City Distance Mag. Time & Date
No recent earthquake activity has been reported nearby.
Minimum magnitude displayed is 2.5.

Coastal Water Temperatures

Place Temperature
New London, CT 68.0 °F

Nearby Weather Stations